sensor_id;sensor_type;location;lat;lon;timestamp;pressure;altitude;pressure_sealevel;temperature;humidity
15884;BME280;8040;50.254;10.960;2023-05-03T00:01:26;99169.72;;;8.88;72.28
15884;BME280;8040;50.254;10.960;2023-05-03T00:03:52;99162.66;;;8.77;72.46
15884;BME280;8040;50.254;10.960;2023-05-03T00:06:18;99176.75;;;8.89;72.59
15884;BME280;8040;50.254;10.960;2023-05-03T00:09:02;99186.78;;;8.93;72.34
15884;BME280;8040;50.254;10.960;2023-05-03T00:11:27;99127.47;;;8.62;72.36
15884;BME280;8040;50.254;10.960;2023-05-03T00:13:53;99127.97;;;8.59;72.14
15884;BME280;8040;50.254;10.960;2023-05-03T00:16:18;99114.97;;;8.51;72.38
15884;BME280;8040;50.254;10.960;2023-05-03T00:18:44;99151.81;;;8.72;71.82
15884;BME280;8040;50.254;10.960;2023-05-03T00:21:10;99166.47;;;8.81;71.89
15884;BME280;8040;50.254;10.960;2023-05-03T00:23:41;99140.41;;;8.60;72.33
15884;BME280;8040;50.254;10.960;2023-05-03T00:26:06;99176.19;;;8.77;72.44
15884;BME280;8040;50.254;10.960;2023-05-03T00:28:31;99163.19;;;8.79;72.55
15884;BME280;8040;50.254;10.960;2023-05-03T00:31:05;99156.94;;;8.68;72.39
15884;BME280;8040;50.254;10.960;2023-05-03T00:34:02;99166.75;;;8.84;71.82
15884;BME280;8040;50.254;10.960;2023-05-03T00:36:28;99139.59;;;8.64;71.88
15884;BME280;8040;50.254;10.960;2023-05-03T00:38:53;99166.97;;;8.73;71.76
15884;BME280;8040;50.254;10.960;2023-05-03T00:41:19;99147.69;;;8.49;71.76
15884;BME280;8040;50.254;10.960;2023-05-03T00:43:44;99132.72;;;8.37;71.95
15884;BME280;8040;50.254;10.960;2023-05-03T00:46:10;99168.03;;;8.67;72.19
15884;BME280;8040;50.254;10.960;2023-05-03T00:48:42;99117.53;;;8.21;71.90
15884;BME280;8040;50.254;10.960;2023-05-03T00:51:09;99166.34;;;8.51;72.25
15884;BME280;8040;50.254;10.960;2023-05-03T00:53:37;99171.47;;;8.52;72.30
15884;BME280;8040;50.254;10.960;2023-05-03T00:56:02;99133.69;;;8.16;72.20
15884;BME280;8040;50.254;10.960;2023-05-03T00:58:29;99163.53;;;8.26;72.47
15884;BME280;8040;50.254;10.960;2023-05-03T01:00:57;99156.78;;;8.28;72.61
15884;BME280;8040;50.254;10.960;2023-05-03T01:03:23;99119.84;;;8.02;72.65
15884;BME280;8040;50.254;10.960;2023-05-03T01:06:00;99166.22;;;8.31;72.84
15884;BME280;8040;50.254;10.960;2023-05-03T01:08:46;99100.88;;;7.92;72.81
15884;BME280;8040;50.254;10.960;2023-05-03T01:11:23;99160.31;;;8.34;72.60
15884;BME280;8040;50.254;10.960;2023-05-03T01:14:09;99156.25;;;8.31;72.67
15884;BME280;8040;50.254;10.960;2023-05-03T01:16:43;99163.81;;;8.34;72.80
15884;BME280;8040;50.254;10.960;2023-05-03T01:19:27;99166.25;;;8.36;72.84
15884;BME280;8040;50.254;10.960;2023-05-03T01:22:11;99120.13;;;8.06;72.24
15884;BME280;8040;50.254;10.960;2023-05-03T01:24:40;99124.44;;;8.02;72.13
15884;BME280;8040;50.254;10.960;2023-05-03T01:27:06;99150.81;;;8.26;71.93
15884;BME280;8040;50.254;10.960;2023-05-03T01:29:33;99158.09;;;8.21;72.00
15884;BME280;8040;50.254;10.960;2023-05-03T01:32:02;99062.06;;;7.62;72.40
15884;BME280;8040;50.254;10.960;2023-05-03T01:34:48;99108.47;;;8.00;72.89
15884;BME280;8040;50.254;10.960;2023-05-03T01:37:43;99047.44;;;7.53;72.04
15884;BME280;8040;50.254;10.960;2023-05-03T01:40:21;99143.09;;;8.08;72.13
15884;BME280;8040;50.254;10.960;2023-05-03T01:42:48;99151.25;;;8.13;71.94
15884;BME280;8040;50.254;10.960;2023-05-03T01:45:14;99149.81;;;8.01;72.12
15884;BME280;8040;50.254;10.960;2023-05-03T01:47:40;99127.28;;;7.80;72.37
15884;BME280;8040;50.254;10.960;2023-05-03T01:50:05;99120.97;;;7.70;72.35
15884;BME280;8040;50.254;10.960;2023-05-03T01:52:32;99136.78;;;7.93;72.45
15884;BME280;8040;50.254;10.960;2023-05-03T01:54:58;99139.47;;;7.88;72.83
15884;BME280;8040;50.254;10.960;2023-05-03T01:57:24;99127.00;;;7.82;72.78
15884;BME280;8040;50.254;10.960;2023-05-03T01:59:49;99149.75;;;7.91;72.86
15884;BME280;8040;50.254;10.960;2023-05-03T02:02:15;99080.28;;;7.45;73.00
15884;BME280;8040;50.254;10.960;2023-05-03T02:04:42;99138.28;;;7.74;72.94
15884;BME280;8040;50.254;10.960;2023-05-03T02:07:07;99147.50;;;7.78;72.93
15884;BME280;8040;50.254;10.960;2023-05-03T02:09:36;99113.94;;;7.69;73.35
15884;BME280;8040;50.254;10.960;2023-05-03T02:15:19;99123.66;;;7.65;72.93
15884;BME280;8040;50.254;10.960;2023-05-03T02:17:45;99143.16;;;7.72;72.87
15884;BME280;8040;50.254;10.960;2023-05-03T02:20:12;99140.41;;;7.67;72.84
15884;BME280;8040;50.254;10.960;2023-05-03T02:22:37;99090.75;;;7.32;72.64
15884;BME280;8040;50.254;10.960;2023-05-03T02:25:03;99143.88;;;7.62;72.78
15884;BME280;8040;50.254;10.960;2023-05-03T02:27:29;99144.13;;;7.61;72.52
15884;BME280;8040;50.254;10.960;2023-05-03T02:29:54;99095.50;;;7.24;72.84
15884;BME280;8040;50.254;10.960;2023-05-03T02:32:35;99131.63;;;7.50;72.64
15884;BME280;8040;50.254;10.960;2023-05-03T02:35:01;99132.09;;;7.42;72.42
15884;BME280;8040;50.254;10.960;2023-05-03T02:37:26;99155.41;;;7.53;72.78
15884;BME280;8040;50.254;10.960;2023-05-03T02:39:51;99135.84;;;7.36;72.89
15884;BME280;8040;50.254;10.960;2023-05-03T02:42:17;99094.03;;;7.07;72.66
15884;BME280;8040;50.254;10.960;2023-05-03T02:44:51;99142.03;;;7.36;72.95
15884;BME280;8040;50.254;10.960;2023-05-03T02:50:19;99164.78;;;7.45;72.76
15884;BME280;8040;50.254;10.960;2023-05-03T02:52:46;99173.69;;;7.46;73.17
15884;BME280;8040;50.254;10.960;2023-05-03T02:55:39;99154.44;;;7.32;73.03
15884;BME280;8040;50.254;10.960;2023-05-03T02:58:13;99143.59;;;7.28;73.06
15884;BME280;8040;50.254;10.960;2023-05-03T03:00:39;99137.34;;;7.22;73.27
15884;BME280;8040;50.254;10.960;2023-05-03T03:03:04;99119.88;;;7.03;73.08
15884;BME280;8040;50.254;10.960;2023-05-03T03:05:30;99170.69;;;7.42;72.21
15884;BME280;8040;50.254;10.960;2023-05-03T03:08:10;99172.78;;;7.35;72.14
15884;BME280;8040;50.254;10.960;2023-05-03T03:10:35;99167.63;;;7.29;72.07
15884;BME280;8040;50.254;10.960;2023-05-03T03:13:01;99131.47;;;7.04;72.50
15884;BME280;8040;50.254;10.960;2023-05-03T03:15:26;99172.31;;;7.12;72.16
15884;BME280;8040;50.254;10.960;2023-05-03T03:17:51;99141.59;;;6.92;72.80
15884;BME280;8040;50.254;10.960;2023-05-03T03:20:21;99136.88;;;6.77;72.85
15884;BME280;8040;50.254;10.960;2023-05-03T03:23:11;99183.56;;;7.04;72.95
15884;BME280;8040;50.254;10.960;2023-05-03T03:25:37;99174.03;;;6.97;73.56
15884;BME280;8040;50.254;10.960;2023-05-03T03:28:11;99166.44;;;6.94;73.57
15884;BME280;8040;50.254;10.960;2023-05-03T03:30:37;99168.34;;;6.93;73.49
15884;BME280;8040;50.254;10.960;2023-05-03T03:33:02;99171.59;;;6.95;73.93
15884;BME280;8040;50.254;10.960;2023-05-03T03:35:28;99148.19;;;6.79;73.67
15884;BME280;8040;50.254;10.960;2023-05-03T03:37:54;99176.19;;;6.95;72.70
15884;BME280;8040;50.254;10.960;2023-05-03T03:40:20;99127.31;;;6.65;73.32
15884;BME280;8040;50.254;10.960;2023-05-03T03:42:46;99165.72;;;6.77;73.27
15884;BME280;8040;50.254;10.960;2023-05-03T03:45:12;99170.16;;;6.88;73.25
15884;BME280;8040;50.254;10.960;2023-05-03T03:47:37;99181.22;;;6.91;73.00
15884;BME280;8040;50.254;10.960;2023-05-03T03:50:04;99147.97;;;6.81;72.73
15884;BME280;8040;50.254;10.960;2023-05-03T03:52:30;99167.13;;;6.84;72.74
15884;BME280;8040;50.254;10.960;2023-05-03T03:54:56;99184.59;;;7.03;72.59
15884;BME280;8040;50.254;10.960;2023-05-03T03:57:21;99199.75;;;7.04;72.84
15884;BME280;8040;50.254;10.960;2023-05-03T04:02:52;99192.44;;;7.05;72.11
15884;BME280;8040;50.254;10.960;2023-05-03T04:05:17;99192.69;;;7.03;71.94
15884;BME280;8040;50.254;10.960;2023-05-03T04:07:43;99155.75;;;6.77;72.02
15884;BME280;8040;50.254;10.960;2023-05-03T04:10:08;99177.53;;;6.97;72.03
15884;BME280;8040;50.254;10.960;2023-05-03T04:12:34;99120.97;;;6.54;71.58
15884;BME280;8040;50.254;10.960;2023-05-03T04:15:06;99189.38;;;6.96;71.33
15884;BME280;8040;50.254;10.960;2023-05-03T04:17:34;99184.66;;;7.08;71.35
15884;BME280;8040;50.254;10.960;2023-05-03T04:20:03;99217.75;;;7.25;71.68
15884;BME280;8040;50.254;10.960;2023-05-03T04:23:06;99223.81;;;7.37;70.70
15884;BME280;8040;50.254;10.960;2023-05-03T04:26:05;99228.19;;;7.43;70.92
15884;BME280;8040;50.254;10.960;2023-05-03T04:28:32;99227.72;;;7.51;70.41
15884;BME280;8040;50.254;10.960;2023-05-03T04:30:57;99225.63;;;7.53;70.21
15884;BME280;8040;50.254;10.960;2023-05-03T04:33:24;99192.50;;;7.36;69.49
15884;BME280;8040;50.254;10.960;2023-05-03T04:35:50;99212.91;;;7.53;69.82
15884;BME280;8040;50.254;10.960;2023-05-03T04:38:16;99232.25;;;7.72;69.48
15884;BME280;8040;50.254;10.960;2023-05-03T04:40:42;99224.66;;;7.69;68.91
15884;BME280;8040;50.254;10.960;2023-05-03T04:43:08;99233.94;;;7.78;69.04
15884;BME280;8040;50.254;10.960;2023-05-03T04:45:33;99194.84;;;7.54;68.83
15884;BME280;8040;50.254;10.960;2023-05-03T04:47:58;99207.69;;;7.73;68.62
15884;BME280;8040;50.254;10.960;2023-05-03T04:50:24;99232.47;;;7.97;68.79
15884;BME280;8040;50.254;10.960;2023-05-03T04:52:50;99252.25;;;8.07;67.59
15884;BME280;8040;50.254;10.960;2023-05-03T04:55:15;99225.09;;;7.87;68.02
15884;BME280;8040;50.254;10.960;2023-05-03T04:57:42;99201.25;;;7.79;68.39
15884;BME280;8040;50.254;10.960;2023-05-03T05:00:08;99164.06;;;7.55;68.03
15884;BME280;8040;50.254;10.960;2023-05-03T05:02:37;99212.38;;;7.83;68.54
15884;BME280;8040;50.254;10.960;2023-05-03T05:05:03;99214.06;;;7.94;67.76
15884;BME280;8040;50.254;10.960;2023-05-03T05:07:29;99253.22;;;8.23;67.44
15884;BME280;8040;50.254;10.960;2023-05-03T05:09:55;99209.25;;;8.01;67.42
15884;BME280;8040;50.254;10.960;2023-05-03T05:12:23;99233.25;;;8.29;67.75
15884;BME280;8040;50.254;10.960;2023-05-03T05:14:48;99219.16;;;8.22;67.67
15884;BME280;8040;50.254;10.960;2023-05-03T05:17:23;99253.91;;;8.45;65.77
15884;BME280;8040;50.254;10.960;2023-05-03T05:19:50;99228.47;;;8.41;66.12
15884;BME280;8040;50.254;10.960;2023-05-03T05:22:17;99262.69;;;8.62;66.02
15884;BME280;8040;50.254;10.960;2023-05-03T05:24:44;99223.38;;;8.49;67.01
15884;BME280;8040;50.254;10.960;2023-05-03T05:27:09;99217.16;;;8.49;66.52
15884;BME280;8040;50.254;10.960;2023-05-03T05:29:34;99273.59;;;8.82;64.64
15884;BME280;8040;50.254;10.960;2023-05-03T05:32:01;99245.88;;;8.60;63.79
15884;BME280;8040;50.254;10.960;2023-05-03T05:34:28;99271.19;;;8.85;64.19
15884;BME280;8040;50.254;10.960;2023-05-03T05:36:53;99264.38;;;8.78;62.79
15884;BME280;8040;50.254;10.960;2023-05-03T05:39:18;99276.06;;;8.93;62.54
15884;BME280;8040;50.254;10.960;2023-05-03T05:41:45;99265.28;;;8.98;61.97
15884;BME280;8040;50.254;10.960;2023-05-03T05:44:10;99275.38;;;9.18;61.73
15884;BME280;8040;50.254;10.960;2023-05-03T05:46:37;99234.16;;;9.01;60.45
15884;BME280;8040;50.254;10.960;2023-05-03T05:49:04;99287.88;;;9.39;60.92
15884;BME280;8040;50.254;10.960;2023-05-03T05:51:29;99264.88;;;9.41;60.48
15884;BME280;8040;50.254;10.960;2023-05-03T05:53:56;99266.81;;;9.56;60.17
15884;BME280;8040;50.254;10.960;2023-05-03T05:56:21;99256.81;;;9.56;58.83
15884;BME280;8040;50.254;10.960;2023-05-03T05:58:47;99287.72;;;9.95;58.70
15884;BME280;8040;50.254;10.960;2023-05-03T06:01:12;99257.13;;;10.05;58.11
15884;BME280;8040;50.254;10.960;2023-05-03T06:03:38;99288.88;;;10.24;56.52
15884;BME280;8040;50.254;10.960;2023-05-03T06:06:03;99268.75;;;10.40;56.23
15884;BME280;8040;50.254;10.960;2023-05-03T06:08:28;99274.13;;;10.70;56.27
15884;BME280;8040;50.254;10.960;2023-05-03T06:10:57;99283.09;;;10.66;51.95
15884;BME280;8040;50.254;10.960;2023-05-03T06:13:22;99279.53;;;10.80;52.72
15884;BME280;8040;50.254;10.960;2023-05-03T06:15:50;99265.97;;;10.75;51.45
15884;BME280;8040;50.254;10.960;2023-05-03T06:18:15;99251.06;;;10.78;50.90
15884;BME280;8040;50.254;10.960;2023-05-03T06:20:41;99286.16;;;11.23;50.04
15884;BME280;8040;50.254;10.960;2023-05-03T06:26:09;99266.97;;;11.04;48.03
15884;BME280;8040;50.254;10.960;2023-05-03T06:28:35;99243.66;;;10.93;48.12
15884;BME280;8040;50.254;10.960;2023-05-03T06:31:00;99284.09;;;11.00;48.53
15884;BME280;8040;50.254;10.960;2023-05-03T06:33:28;99212.78;;;10.84;48.99
15884;BME280;8040;50.254;10.960;2023-05-03T06:35:53;99163.44;;;10.72;49.58
15884;BME280;8040;50.254;10.960;2023-05-03T06:38:19;99278.47;;;11.40;49.13
15884;BME280;8040;50.254;10.960;2023-05-03T06:40:56;99255.28;;;11.57;49.04
15884;BME280;8040;50.254;10.960;2023-05-03T06:43:21;99274.78;;;11.74;48.36
15884;BME280;8040;50.254;10.960;2023-05-03T06:45:52;99284.56;;;11.75;47.81
15884;BME280;8040;50.254;10.960;2023-05-03T06:48:36;99266.72;;;11.59;48.53
15884;BME280;8040;50.254;10.960;2023-05-03T06:51:01;99265.56;;;11.17;47.46
15884;BME280;8040;50.254;10.960;2023-05-03T06:53:27;99258.09;;;10.79;48.68
15884;BME280;8040;50.254;10.960;2023-05-03T06:55:53;99276.00;;;10.75;48.69
15884;BME280;8040;50.254;10.960;2023-05-03T06:58:18;99278.47;;;10.71;49.06
15884;BME280;8040;50.254;10.960;2023-05-03T07:00:43;99274.19;;;10.60;50.06
15884;BME280;8040;50.254;10.960;2023-05-03T07:03:11;99249.50;;;10.42;49.24
15884;BME280;8040;50.254;10.960;2023-05-03T07:05:42;99282.31;;;10.55;49.94
15884;BME280;8040;50.254;10.960;2023-05-03T07:08:10;99179.84;;;10.02;49.69
15884;BME280;8040;50.254;10.960;2023-05-03T07:10:36;99235.69;;;10.43;49.65
15884;BME280;8040;50.254;10.960;2023-05-03T07:13:01;99237.59;;;10.33;49.67
15884;BME280;8040;50.254;10.960;2023-05-03T07:15:27;99228.06;;;10.40;49.98
15884;BME280;8040;50.254;10.960;2023-05-03T07:17:52;99268.41;;;10.82;49.89
15884;BME280;8040;50.254;10.960;2023-05-03T07:20:18;99248.41;;;10.58;49.42
15884;BME280;8040;50.254;10.960;2023-05-03T07:22:43;99250.53;;;10.66;49.34
15884;BME280;8040;50.254;10.960;2023-05-03T07:25:09;99244.09;;;10.37;49.52
15884;BME280;8040;50.254;10.960;2023-05-03T07:27:36;99265.22;;;10.55;49.59
15884;BME280;8040;50.254;10.960;2023-05-03T07:30:03;99253.50;;;10.69;50.40
15884;BME280;8040;50.254;10.960;2023-05-03T07:32:31;99247.84;;;10.66;49.68
15884;BME280;8040;50.254;10.960;2023-05-03T07:34:57;99194.72;;;10.45;49.65
15884;BME280;8040;50.254;10.960;2023-05-03T07:37:23;99227.78;;;10.52;48.94
15884;BME280;8040;50.254;10.960;2023-05-03T07:39:52;99244.09;;;10.42;49.11
15884;BME280;8040;50.254;10.960;2023-05-03T07:42:18;99241.63;;;10.50;50.00
15884;BME280;8040;50.254;10.960;2023-05-03T07:44:43;99237.50;;;10.68;49.28
15884;BME280;8040;50.254;10.960;2023-05-03T07:47:09;99247.47;;;10.92;49.46
15884;BME280;8040;50.254;10.960;2023-05-03T07:49:36;99219.25;;;10.93;49.02
15884;BME280;8040;50.254;10.960;2023-05-03T07:52:02;99194.66;;;10.65;48.76
15884;BME280;8040;50.254;10.960;2023-05-03T07:54:42;99231.56;;;10.66;48.65
15884;BME280;8040;50.254;10.960;2023-05-03T07:57:13;99214.69;;;10.74;48.65
15884;BME280;8040;50.254;10.960;2023-05-03T07:59:41;99200.03;;;10.75;48.21
15884;BME280;8040;50.254;10.960;2023-05-03T08:02:06;99208.75;;;10.67;47.83
15884;BME280;8040;50.254;10.960;2023-05-03T08:04:32;99182.22;;;10.44;48.14
15884;BME280;8040;50.254;10.960;2023-05-03T08:07:01;99237.94;;;11.00;47.94
15884;BME280;8040;50.254;10.960;2023-05-03T08:09:27;99235.75;;;11.07;48.58
15884;BME280;8040;50.254;10.960;2023-05-03T08:11:54;99235.16;;;11.15;47.79
15884;BME280;8040;50.254;10.960;2023-05-03T08:14:20;99209.13;;;11.04;48.47
15884;BME280;8040;50.254;10.960;2023-05-03T08:16:48;99225.94;;;11.11;47.49
15884;BME280;8040;50.254;10.960;2023-05-03T08:19:13;99148.03;;;10.53;47.92
15884;BME280;8040;50.254;10.960;2023-05-03T08:21:45;99215.88;;;11.16;47.74
15884;BME280;8040;50.254;10.960;2023-05-03T08:24:11;99202.56;;;11.20;48.17
15884;BME280;8040;50.254;10.960;2023-05-03T08:26:39;99194.63;;;11.28;46.67
15884;BME280;8040;50.254;10.960;2023-05-03T08:29:06;99237.63;;;11.60;46.99
15884;BME280;8040;50.254;10.960;2023-05-03T08:31:32;99213.69;;;11.67;47.24
15884;BME280;8040;50.254;10.960;2023-05-03T08:33:58;99185.78;;;11.51;46.72
15884;BME280;8040;50.254;10.960;2023-05-03T08:36:23;99202.25;;;11.70;46.64
15884;BME280;8040;50.254;10.960;2023-05-03T08:38:49;99203.63;;;11.67;46.21
15884;BME280;8040;50.254;10.960;2023-05-03T08:41:29;99231.00;;;11.76;46.28
15884;BME280;8040;50.254;10.960;2023-05-03T08:43:57;99222.91;;;11.66;45.15
15884;BME280;8040;50.254;10.960;2023-05-03T08:46:23;99205.88;;;11.12;45.31
15884;BME280;8040;50.254;10.960;2023-05-03T08:48:53;99225.31;;;11.24;46.36
15884;BME280;8040;50.254;10.960;2023-05-03T08:51:23;99215.00;;;11.31;46.39
15884;BME280;8040;50.254;10.960;2023-05-03T08:53:49;99189.56;;;11.12;46.00
15884;BME280;8040;50.254;10.960;2023-05-03T08:56:24;99214.28;;;11.59;46.34
15884;BME280;8040;50.254;10.960;2023-05-03T08:58:53;99156.84;;;11.32;45.84
15884;BME280;8040;50.254;10.960;2023-05-03T09:01:18;99209.16;;;11.52;45.45
15884;BME280;8040;50.254;10.960;2023-05-03T09:03:50;99214.22;;;11.69;45.80
15884;BME280;8040;50.254;10.960;2023-05-03T09:06:27;99205.72;;;11.37;46.07
15884;BME280;8040;50.254;10.960;2023-05-03T09:08:56;99216.91;;;11.74;46.88
15884;BME280;8040;50.254;10.960;2023-05-03T09:11:29;99237.16;;;11.91;46.76
15884;BME280;8040;50.254;10.960;2023-05-03T09:14:08;99235.34;;;12.10;45.29
15884;BME280;8040;50.254;10.960;2023-05-03T09:16:34;99191.88;;;12.05;45.22
15884;BME280;8040;50.254;10.960;2023-05-03T09:19:02;99218.84;;;12.02;45.11
15884;BME280;8040;50.254;10.960;2023-05-03T09:21:28;99208.84;;;11.92;44.61
15884;BME280;8040;50.254;10.960;2023-05-03T09:23:55;99208.53;;;11.99;44.41
15884;BME280;8040;50.254;10.960;2023-05-03T09:26:31;99228.00;;;12.11;44.21
15884;BME280;8040;50.254;10.960;2023-05-03T09:28:59;99221.31;;;12.27;44.75
15884;BME280;8040;50.254;10.960;2023-05-03T09:31:27;99225.00;;;12.41;44.21
15884;BME280;8040;50.254;10.960;2023-05-03T09:33:52;99197.03;;;12.07;45.09
15884;BME280;8040;50.254;10.960;2023-05-03T09:36:18;99214.44;;;12.34;44.48
15884;BME280;8040;50.254;10.960;2023-05-03T09:38:43;99149.50;;;11.99;44.29
15884;BME280;8040;50.254;10.960;2023-05-03T09:41:09;99120.50;;;11.90;44.31
15884;BME280;8040;50.254;10.960;2023-05-03T09:44:03;99215.13;;;12.50;43.10
15884;BME280;8040;50.254;10.960;2023-05-03T09:46:28;99182.97;;;12.52;43.72
15884;BME280;8040;50.254;10.960;2023-05-03T09:48:55;99149.56;;;12.23;44.04
15884;BME280;8040;50.254;10.960;2023-05-03T09:51:23;99159.25;;;12.34;43.56
15884;BME280;8040;50.254;10.960;2023-05-03T09:53:49;99205.66;;;12.89;43.35
15884;BME280;8040;50.254;10.960;2023-05-03T09:56:15;99192.94;;;12.85;43.19
15884;BME280;8040;50.254;10.960;2023-05-03T09:58:42;99205.00;;;13.02;43.40
15884;BME280;8040;50.254;10.960;2023-05-03T10:01:09;99143.97;;;12.61;43.19
15884;BME280;8040;50.254;10.960;2023-05-03T10:06:48;99177.34;;;13.51;47.19
15884;BME280;8040;50.254;10.960;2023-05-03T10:09:25;99185.78;;;13.31;42.26
15884;BME280;8040;50.254;10.960;2023-05-03T10:11:53;99194.41;;;13.19;41.83
15884;BME280;8040;50.254;10.960;2023-05-03T10:14:50;99183.22;;;13.39;42.56
15884;BME280;8040;50.254;10.960;2023-05-03T10:17:21;99132.03;;;12.76;40.49
15884;BME280;8040;50.254;10.960;2023-05-03T10:22:26;99181.84;;;13.42;41.53
15884;BME280;8040;50.254;10.960;2023-05-03T10:30:31;99181.38;;;13.72;41.46
15884;BME280;8040;50.254;10.960;2023-05-03T10:35:51;99146.75;;;13.86;40.71
15884;BME280;8040;50.254;10.960;2023-05-03T10:38:25;99180.88;;;14.02;40.55
15884;BME280;8040;50.254;10.960;2023-05-03T10:40:51;99161.16;;;13.91;41.42
15884;BME280;8040;50.254;10.960;2023-05-03T10:46:29;99140.72;;;13.89;39.78
15884;BME280;8040;50.254;10.960;2023-05-03T10:49:15;99164.25;;;14.17;40.11
15884;BME280;8040;50.254;10.960;2023-05-03T10:54:44;99168.03;;;14.34;39.28
15884;BME280;8040;50.254;10.960;2023-05-03T10:57:18;99171.69;;;14.30;39.04
15884;BME280;8040;50.254;10.960;2023-05-03T10:59:59;99165.94;;;14.13;39.31
15884;BME280;8040;50.254;10.960;2023-05-03T11:02:31;99136.88;;;13.90;39.16
15884;BME280;8040;50.254;10.960;2023-05-03T11:05:01;99167.16;;;13.75;37.68
15884;BME280;8040;50.254;10.960;2023-05-03T11:07:29;99125.13;;;13.76;38.86
15884;BME280;8040;50.254;10.960;2023-05-03T11:09:56;99163.25;;;13.94;39.23
15884;BME280;8040;50.254;10.960;2023-05-03T11:12:22;99141.00;;;13.74;39.62
15884;BME280;8040;50.254;10.960;2023-05-03T11:14:51;99126.91;;;13.99;39.95
15884;BME280;8040;50.254;10.960;2023-05-03T11:17:16;99120.22;;;14.23;39.06
15884;BME280;8040;50.254;10.960;2023-05-03T11:19:43;99076.09;;;13.89;38.10
15884;BME280;8040;50.254;10.960;2023-05-03T11:22:08;99139.13;;;14.33;37.26
15884;BME280;8040;50.254;10.960;2023-05-03T11:24:34;99151.13;;;14.19;36.46
15884;BME280;8040;50.254;10.960;2023-05-03T11:26:59;99137.41;;;14.51;37.42
15884;BME280;8040;50.254;10.960;2023-05-03T11:29:25;99132.06;;;14.73;37.99
15884;BME280;8040;50.254;10.960;2023-05-03T11:31:51;99120.13;;;14.55;36.89
15884;BME280;8040;50.254;10.960;2023-05-03T11:34:17;99104.75;;;14.32;37.38
15884;BME280;8040;50.254;10.960;2023-05-03T11:36:42;99142.84;;;14.37;37.44
15884;BME280;8040;50.254;10.960;2023-05-03T11:39:09;99122.16;;;14.23;37.57
15884;BME280;8040;50.254;10.960;2023-05-03T11:41:41;99118.91;;;14.48;38.03
15884;BME280;8040;50.254;10.960;2023-05-03T11:44:10;99084.63;;;14.69;38.57
15884;BME280;8040;50.254;10.960;2023-05-03T11:47:22;99117.47;;;15.26;37.18
15884;BME280;8040;50.254;10.960;2023-05-03T11:49:51;99121.38;;;15.47;37.20
15884;BME280;8040;50.254;10.960;2023-05-03T11:52:25;99121.81;;;14.92;35.33
15884;BME280;8040;50.254;10.960;2023-05-03T11:54:54;99105.97;;;14.67;35.92
15884;BME280;8040;50.254;10.960;2023-05-03T11:57:59;99114.34;;;14.84;37.02
15884;BME280;8040;50.254;10.960;2023-05-03T12:00:25;99109.06;;;14.87;36.17
15884;BME280;8040;50.254;10.960;2023-05-03T12:02:59;99109.56;;;15.03;36.50
15884;BME280;8040;50.254;10.960;2023-05-03T12:05:50;99117.97;;;15.42;37.21
15884;BME280;8040;50.254;10.960;2023-05-03T12:08:18;99083.38;;;15.24;35.63
15884;BME280;8040;50.254;10.960;2023-05-03T12:10:46;99096.53;;;15.35;33.46
15884;BME280;8040;50.254;10.960;2023-05-03T12:13:14;99083.72;;;15.44;33.63
15884;BME280;8040;50.254;10.960;2023-05-03T12:15:59;99111.13;;;15.53;35.25
15884;BME280;8040;50.254;10.960;2023-05-03T12:19:04;99111.50;;;15.82;35.75
15884;BME280;8040;50.254;10.960;2023-05-03T12:21:46;99092.47;;;15.77;34.75
15884;BME280;8040;50.254;10.960;2023-05-03T12:24:13;99075.53;;;15.66;33.98
15884;BME280;8040;50.254;10.960;2023-05-03T12:26:46;99110.44;;;15.91;33.57
15884;BME280;8040;50.254;10.960;2023-05-03T12:29:12;99099.78;;;15.90;33.84
15884;BME280;8040;50.254;10.960;2023-05-03T12:31:39;99101.72;;;15.89;34.50
15884;BME280;8040;50.254;10.960;2023-05-03T12:34:05;99073.19;;;15.82;34.41
15884;BME280;8040;50.254;10.960;2023-05-03T12:36:32;99104.09;;;15.82;33.88
15884;BME280;8040;50.254;10.960;2023-05-03T12:38:58;99099.75;;;15.81;33.91
15884;BME280;8040;50.254;10.960;2023-05-03T12:41:23;99072.66;;;16.02;35.27
15884;BME280;8040;50.254;10.960;2023-05-03T12:43:55;99082.34;;;16.08;33.55
15884;BME280;8040;50.254;10.960;2023-05-03T12:46:21;99062.50;;;15.72;33.61
15884;BME280;8040;50.254;10.960;2023-05-03T12:48:51;99069.44;;;16.00;33.49
15884;BME280;8040;50.254;10.960;2023-05-03T12:51:16;99055.31;;;16.14;33.41
15884;BME280;8040;50.254;10.960;2023-05-03T12:53:43;99001.25;;;15.81;32.45
15884;BME280;8040;50.254;10.960;2023-05-03T12:56:08;99052.19;;;16.29;32.55
15884;BME280;8040;50.254;10.960;2023-05-03T12:58:34;99074.16;;;16.46;32.50
15884;BME280;8040;50.254;10.960;2023-05-03T13:00:59;99077.75;;;16.55;33.60
15884;BME280;8040;50.254;10.960;2023-05-03T13:03:25;99068.91;;;16.67;33.35
15884;BME280;8040;50.254;10.960;2023-05-03T13:05:51;99021.47;;;16.41;33.30
15884;BME280;8040;50.254;10.960;2023-05-03T13:08:17;99073.91;;;16.73;32.96
15884;BME280;8040;50.254;10.960;2023-05-03T13:10:43;99053.69;;;16.44;33.00
15884;BME280;8040;50.254;10.960;2023-05-03T13:13:12;99059.53;;;16.68;33.75
15884;BME280;8040;50.254;10.960;2023-05-03T13:15:38;99019.63;;;16.28;33.70
15884;BME280;8040;50.254;10.960;2023-05-03T13:18:05;99050.63;;;16.07;33.17
15884;BME280;8040;50.254;10.960;2023-05-03T13:20:31;99032.91;;;16.04;33.52
15884;BME280;8040;50.254;10.960;2023-05-03T13:22:57;98987.34;;;15.69;32.80
15884;BME280;8040;50.254;10.960;2023-05-03T13:25:23;99054.63;;;16.01;32.46
15884;BME280;8040;50.254;10.960;2023-05-03T13:28:07;99052.53;;;16.36;33.20
15884;BME280;8040;50.254;10.960;2023-05-03T13:30:33;99037.59;;;16.42;33.79
15884;BME280;8040;50.254;10.960;2023-05-03T13:32:58;99040.72;;;16.66;33.61
15884;BME280;8040;50.254;10.960;2023-05-03T13:35:24;99050.88;;;16.74;33.28
15884;BME280;8040;50.254;10.960;2023-05-03T13:37:51;99033.31;;;16.75;33.16
15884;BME280;8040;50.254;10.960;2023-05-03T13:40:16;99034.25;;;16.62;33.00
15884;BME280;8040;50.254;10.960;2023-05-03T13:42:43;99035.84;;;16.63;33.14
15884;BME280;8040;50.254;10.960;2023-05-03T13:45:08;99031.03;;;16.69;32.66
15884;BME280;8040;50.254;10.960;2023-05-03T13:47:36;99035.19;;;16.49;32.32